createdAt,value
2023-01-04T00:02:05.118Z,7.06
2023-01-04T00:04:31.557Z,7.07
2023-01-04T00:06:57.967Z,7.07
2023-01-04T00:09:24.421Z,7.07
2023-01-04T00:11:50.823Z,7.08
2023-01-04T00:14:18.634Z,7.07
2023-01-04T00:16:45.187Z,7.06
2023-01-04T00:19:12.308Z,7.07
2023-01-04T00:21:38.726Z,7.07
2023-01-04T00:24:05.316Z,7.07
2023-01-04T00:26:33.309Z,7.06
2023-01-04T00:29:07.188Z,7.06
2023-01-04T00:31:34.914Z,7.04
2023-01-04T00:34:02.659Z,7.00
2023-01-04T00:36:29.752Z,6.99
2023-01-04T00:39:07.654Z,6.99
2023-01-04T00:41:58.203Z,6.95
2023-01-04T00:44:22.181Z,6.93
2023-01-04T00:46:48.791Z,6.89
2023-01-04T00:49:15.400Z,6.88
2023-01-04T00:51:42.240Z,6.86
2023-01-04T00:54:12.871Z,6.85
2023-01-04T00:56:39.279Z,6.84
2023-01-04T00:59:05.943Z,6.87
2023-01-04T01:01:33.743Z,6.86
2023-01-04T01:04:03.163Z,6.86
2023-01-04T01:06:30.756Z,6.87
2023-01-04T01:08:57.676Z,6.86
2023-01-04T01:11:24.721Z,6.87
2023-01-04T01:13:51.353Z,6.86
2023-01-04T01:16:37.939Z,6.87
2023-01-04T01:19:07.198Z,6.87
2023-01-04T01:21:33.626Z,6.82
2023-01-04T01:24:00.070Z,6.83
2023-01-04T01:26:26.534Z,6.82
2023-01-04T01:28:53.062Z,6.83
2023-01-04T01:31:24.517Z,6.81
2023-01-04T01:33:52.782Z,6.83
2023-01-04T01:36:20.294Z,6.83
2023-01-04T01:38:46.858Z,6.81
2023-01-04T01:41:19.881Z,6.81
2023-01-04T01:43:52.409Z,6.81
2023-01-04T01:46:40.560Z,6.81
2023-01-04T01:49:21.661Z,6.81
2023-01-04T01:51:48.183Z,6.80
2023-01-04T01:54:20.632Z,6.79
2023-01-04T01:56:48.144Z,6.78
2023-01-04T01:59:15.753Z,6.79
2023-01-04T02:01:42.258Z,6.79
2023-01-04T02:04:09.473Z,6.79
2023-01-04T02:06:39.275Z,6.78
2023-01-04T02:09:05.850Z,6.78
2023-01-04T02:11:32.338Z,6.75
2023-01-04T02:14:18.500Z,6.73
2023-01-04T02:16:50.966Z,6.72
2023-01-04T02:19:49.521Z,6.73
2023-01-04T02:22:32.331Z,6.72
2023-01-04T02:25:26.080Z,6.70
2023-01-04T02:27:55.415Z,6.66
2023-01-04T02:30:31.255Z,6.66
2023-01-04T02:33:10.353Z,6.68
2023-01-04T02:35:42.235Z,6.70
2023-01-04T02:38:22.324Z,6.69
2023-01-04T02:41:10.566Z,6.71
2023-01-04T02:44:09.305Z,6.75
2023-01-04T02:46:40.948Z,6.76
2023-01-04T02:49:25.971Z,6.79
2023-01-04T02:51:52.399Z,6.81
2023-01-04T02:54:25.094Z,6.83
2023-01-04T02:57:30.645Z,6.84
2023-01-04T03:00:06.852Z,6.84
2023-01-04T03:03:20.091Z,6.86
2023-01-04T03:06:17.679Z,6.86
2023-01-04T03:08:49.067Z,6.86
2023-01-04T03:11:35.721Z,6.84
2023-01-04T03:14:30.967Z,6.86
2023-01-04T03:17:00.849Z,6.86
2023-01-04T03:19:45.863Z,6.86
2023-01-04T03:22:33.589Z,6.86
2023-01-04T03:25:19.746Z,6.86
2023-01-04T03:28:06.319Z,6.84
2023-01-04T03:30:53.846Z,6.83
2023-01-04T03:33:38.986Z,6.81
2023-01-04T03:36:38.672Z,6.81
2023-01-04T03:39:58.157Z,6.80
2023-01-04T03:42:58.524Z,6.81
2023-01-04T03:45:47.541Z,6.82
2023-01-04T03:48:32.400Z,6.83
2023-01-04T03:51:04.965Z,6.83
2023-01-04T03:53:35.879Z,6.86
2023-01-04T03:56:02.740Z,6.91
2023-01-04T03:58:29.214Z,6.92
2023-01-04T04:01:03.956Z,6.96
2023-01-04T04:03:50.367Z,7.00
2023-01-04T04:06:35.386Z,7.03
2023-01-04T04:09:02.097Z,7.01
2023-01-04T04:11:31.369Z,7.05
2023-01-04T04:13:59.356Z,7.10
2023-01-04T04:16:26.194Z,7.17
2023-01-04T04:18:52.626Z,7.20
2023-01-04T04:21:19.052Z,7.23
2023-01-04T04:23:45.580Z,7.28
2023-01-04T04:26:12.031Z,7.30
2023-01-04T04:28:39.407Z,7.33
2023-01-04T04:31:06.289Z,7.36
2023-01-04T04:33:32.693Z,7.39
2023-01-04T04:35:59.163Z,7.40
2023-01-04T04:38:25.659Z,7.42
2023-01-04T04:41:10.590Z,7.43
2023-01-04T04:43:37.007Z,7.47
2023-01-04T04:46:03.572Z,7.51
2023-01-04T04:48:30.128Z,7.50
2023-01-04T04:50:56.759Z,7.54
2023-01-04T04:53:23.224Z,7.58
2023-01-04T04:55:53.295Z,7.60
2023-01-04T04:58:20.022Z,7.62
2023-01-04T05:00:46.481Z,7.65
2023-01-04T05:03:12.960Z,7.69
2023-01-04T05:05:39.408Z,7.70
2023-01-04T05:08:05.851Z,7.74
2023-01-04T05:10:32.256Z,7.78
2023-01-04T05:13:01.532Z,7.78
2023-01-04T05:15:31.185Z,7.79
2023-01-04T05:17:57.663Z,7.78
2023-01-04T05:20:25.278Z,7.80
2023-01-04T05:22:51.693Z,7.84
2023-01-04T05:25:18.142Z,7.86
2023-01-04T05:27:45.144Z,7.87
2023-01-04T05:30:31.820Z,7.92
2023-01-04T05:32:58.768Z,7.94
2023-01-04T05:35:25.420Z,7.97
2023-01-04T05:37:51.865Z,7.98
2023-01-04T05:40:18.561Z,7.98
2023-01-04T05:42:45.024Z,8.00
2023-01-04T05:45:11.711Z,8.03
2023-01-04T05:47:38.112Z,8.06
2023-01-04T05:50:04.854Z,8.05
2023-01-04T05:52:31.370Z,8.06
2023-01-04T05:54:57.802Z,8.09
2023-01-04T05:57:24.215Z,8.12
2023-01-04T05:59:50.673Z,8.13
2023-01-04T06:02:23.171Z,8.13
2023-01-04T06:04:56.450Z,8.13
2023-01-04T06:07:24.780Z,8.13
2023-01-04T06:09:51.208Z,8.11
2023-01-04T06:12:17.637Z,8.19
2023-01-04T06:14:44.031Z,8.21
2023-01-04T06:17:10.607Z,8.22
2023-01-04T06:19:37.110Z,8.24
2023-01-04T06:22:03.615Z,8.30
2023-01-04T06:24:30.079Z,8.34
2023-01-04T06:26:56.507Z,8.31
2023-01-04T06:29:22.933Z,8.30
2023-01-04T06:31:49.373Z,8.25
2023-01-04T06:34:15.811Z,8.25
2023-01-04T06:36:42.403Z,8.26
2023-01-04T06:39:09.151Z,8.22
2023-01-04T06:41:35.729Z,8.22
2023-01-04T06:44:02.191Z,8.25
2023-01-04T06:46:28.712Z,8.27
2023-01-04T06:48:55.186Z,8.26
2023-01-04T06:51:21.922Z,8.24
2023-01-04T06:53:48.396Z,8.21
2023-01-04T06:56:15.219Z,8.24
2023-01-04T06:58:41.624Z,8.28
2023-01-04T07:01:08.181Z,8.31
2023-01-04T07:03:34.789Z,8.25
2023-01-04T07:06:06.103Z,8.30
2023-01-04T07:08:33.350Z,8.32
2023-01-04T07:10:59.753Z,8.35
2023-01-04T07:13:26.185Z,8.36
2023-01-04T07:15:52.663Z,8.36
2023-01-04T07:18:19.135Z,8.40
2023-01-04T07:20:45.544Z,8.40
2023-01-04T07:23:11.962Z,8.41
2023-01-04T07:25:38.429Z,8.45
2023-01-04T07:28:04.918Z,8.44
2023-01-04T07:30:31.375Z,8.49
2023-01-04T07:32:57.830Z,8.48
2023-01-04T07:35:24.626Z,8.51
2023-01-04T07:37:57.816Z,8.52
2023-01-04T07:40:24.974Z,8.55
2023-01-04T07:42:57.026Z,8.59
2023-01-04T07:45:23.785Z,8.58
2023-01-04T07:47:50.271Z,8.60
2023-01-04T07:50:16.761Z,8.65
2023-01-04T07:52:43.190Z,8.66
2023-01-04T07:55:09.988Z,8.69
2023-01-04T07:57:37.416Z,8.67
2023-01-04T08:00:04.720Z,8.71
2023-01-04T08:02:31.226Z,8.74
2023-01-04T08:04:57.841Z,8.71
2023-01-04T08:07:24.294Z,8.77
2023-01-04T08:09:50.706Z,8.76
2023-01-04T08:12:17.125Z,8.80
2023-01-04T08:14:43.550Z,8.86
2023-01-04T08:17:10.130Z,8.92
2023-01-04T08:19:36.580Z,8.94
2023-01-04T08:22:03.001Z,8.97
2023-01-04T08:24:29.427Z,8.97
2023-01-04T08:26:56.265Z,9.00
2023-01-04T08:29:22.708Z,9.04
2023-01-04T08:31:49.181Z,9.05
2023-01-04T08:34:15.750Z,9.02
2023-01-04T08:36:50.417Z,9.09
2023-01-04T08:39:16.971Z,9.15
2023-01-04T08:41:58.746Z,9.16
2023-01-04T08:44:27.934Z,9.22
2023-01-04T08:46:55.712Z,9.18
2023-01-04T08:49:24.643Z,9.23
2023-01-04T08:51:51.149Z,9.30
2023-01-04T08:54:17.803Z,9.31
2023-01-04T08:56:44.243Z,9.33
2023-01-04T08:59:12.987Z,9.43
2023-01-04T09:01:39.993Z,9.48
2023-01-04T09:04:07.134Z,9.50
2023-01-04T09:06:33.660Z,9.54
2023-01-04T09:09:00.135Z,9.59
2023-01-04T09:11:26.656Z,9.61
2023-01-04T09:14:06.405Z,9.63
2023-01-04T09:16:34.508Z,9.61
2023-01-04T09:19:00.980Z,9.70
2023-01-04T09:21:28.544Z,9.73
2023-01-04T09:23:58.036Z,9.73
2023-01-04T09:26:25.435Z,9.79
2023-01-04T09:28:53.490Z,9.76
2023-01-04T09:31:22.889Z,9.80
2023-01-04T09:34:18.869Z,9.82
2023-01-04T09:36:35.720Z,9.83
2023-01-04T09:39:02.110Z,9.87
2023-01-04T09:41:30.622Z,9.90
2023-01-04T09:44:18.206Z,9.95
2023-01-04T09:46:49.723Z,9.94
2023-01-04T09:49:22.855Z,9.95
2023-01-04T09:52:03.357Z,9.97
2023-01-04T09:54:51.066Z,10.03
2023-01-04T09:57:29.628Z,10.06
2023-01-04T09:59:59.105Z,10.05
2023-01-04T10:02:43.620Z,10.05
2023-01-04T10:05:19.864Z,10.07
2023-01-04T10:07:46.311Z,10.08
2023-01-04T10:10:22.808Z,10.13
2023-01-04T10:13:14.743Z,10.15
2023-01-04T10:15:49.484Z,10.21
2023-01-04T10:21:33.368Z,10.23
2023-01-04T10:24:19.409Z,10.24
2023-01-04T10:26:48.248Z,10.22
2023-01-04T10:29:41.117Z,10.30
2023-01-04T10:32:31.951Z,10.26
2023-01-04T10:34:58.509Z,10.24
2023-01-04T10:37:35.773Z,10.24
2023-01-04T10:40:02.415Z,10.24
2023-01-04T10:42:38.989Z,10.25
2023-01-04T10:45:15.259Z,10.22
2023-01-04T10:48:02.699Z,10.20
2023-01-04T10:50:44.201Z,10.27
2023-01-04T10:53:20.569Z,10.27
2023-01-04T10:56:24.109Z,10.30
2023-01-04T10:59:04.633Z,10.33
2023-01-04T11:01:40.243Z,10.34
2023-01-04T11:04:18.938Z,10.41
2023-01-04T11:07:00.111Z,10.46
2023-01-04T11:09:32.649Z,10.53
2023-01-04T11:12:00.888Z,10.54
2023-01-04T11:14:33.280Z,10.57
2023-01-04T11:17:05.623Z,10.62
2023-01-04T11:19:32.938Z,10.65
2023-01-04T11:22:26.123Z,10.68
2023-01-04T11:28:17.202Z,10.76
2023-01-04T11:30:50.160Z,10.80
2023-01-04T11:33:21.709Z,10.85
2023-01-04T11:35:53.791Z,10.86
2023-01-04T11:38:28.007Z,10.94
2023-01-04T11:41:01.919Z,11.00
2023-01-04T11:43:30.327Z,11.05
2023-01-04T11:46:21.957Z,11.11
2023-01-04T11:48:48.572Z,11.08
2023-01-04T11:51:25.795Z,11.14
2023-01-04T11:54:15.477Z,11.16
2023-01-04T11:57:10.766Z,11.13
2023-01-04T11:59:38.004Z,11.13
2023-01-04T12:05:29.082Z,11.15
2023-01-04T12:07:57.812Z,11.12
2023-01-04T12:10:27.110Z,11.11
2023-01-04T12:12:55.104Z,11.09
2023-01-04T12:15:53.840Z,11.01
2023-01-04T12:18:26.499Z,10.92
2023-01-04T12:20:52.897Z,10.95
2023-01-04T12:23:20.448Z,10.98
2023-01-04T12:25:51.394Z,10.98
2023-01-04T12:28:33.553Z,11.06
2023-01-04T12:31:19.574Z,11.08
2023-01-04T12:33:47.991Z,11.09
2023-01-04T12:36:18.743Z,11.13
2023-01-04T12:38:59.191Z,11.18
2023-01-04T12:41:25.555Z,11.20
2023-01-04T12:43:53.206Z,11.25
2023-01-04T12:46:47.411Z,11.23
2023-01-04T12:49:25.745Z,11.27
2023-01-04T12:52:55.238Z,11.30
2023-01-04T12:55:31.848Z,11.30
2023-01-04T12:57:59.486Z,11.29
2023-01-04T13:00:50.804Z,11.29
2023-01-04T13:03:18.230Z,11.30
2023-01-04T13:05:58.141Z,11.27
2023-01-04T13:08:25.208Z,11.32
2023-01-04T13:10:56.264Z,11.34
2023-01-04T13:13:58.277Z,11.35
2023-01-04T13:16:39.753Z,11.35
2023-01-04T13:19:25.815Z,11.34
2023-01-04T13:21:53.689Z,11.35
2023-01-04T13:24:32.006Z,11.40
2023-01-04T13:27:07.078Z,11.39
2023-01-04T13:29:34.856Z,11.43
2023-01-04T13:32:09.031Z,11.51
2023-01-04T13:34:51.924Z,11.55
2023-01-04T13:37:25.821Z,11.56
2023-01-04T13:40:01.412Z,11.58
2023-01-04T13:42:31.537Z,11.62
2023-01-04T13:45:20.379Z,11.61
2023-01-04T13:47:50.076Z,11.67
2023-01-04T13:50:37.376Z,11.67
2023-01-04T13:53:08.023Z,11.71
2023-01-04T13:55:39.024Z,11.72
2023-01-04T13:58:07.831Z,11.72
2023-01-04T14:00:44.156Z,11.77
2023-01-04T14:03:10.596Z,11.80
2023-01-04T14:05:38.076Z,11.81
2023-01-04T14:08:10.084Z,11.85
2023-01-04T14:10:36.911Z,11.87
2023-01-04T14:13:04.111Z,11.85
2023-01-04T14:15:33.715Z,11.86
2023-01-04T14:18:00.171Z,11.87
2023-01-04T14:20:26.477Z,11.89
2023-01-04T14:22:54.529Z,11.92
2023-01-04T14:25:48.514Z,11.92
2023-01-04T14:28:30.458Z,11.93
2023-01-04T14:31:00.057Z,11.93
2023-01-04T14:33:41.790Z,11.90
2023-01-04T14:36:19.266Z,11.92
2023-01-04T14:38:52.749Z,11.94
2023-01-04T14:41:24.909Z,11.98
2023-01-04T14:44:00.404Z,12.02
2023-01-04T14:46:31.814Z,12.00
2023-01-04T14:48:58.585Z,11.99
2023-01-04T14:51:48.873Z,12.01
2023-01-04T14:54:23.923Z,12.02
2023-01-04T14:56:51.268Z,11.99
2023-01-04T14:59:17.939Z,12.01
2023-01-04T15:01:44.467Z,11.99
2023-01-04T15:04:11.054Z,12.03
2023-01-04T15:06:47.235Z,12.07
2023-01-04T15:09:13.659Z,12.07
2023-01-04T15:11:40.118Z,12.07
2023-01-04T15:14:06.542Z,12.09
2023-01-04T15:16:32.950Z,12.05
2023-01-04T15:18:59.509Z,12.08
2023-01-04T15:21:25.919Z,12.11
2023-01-04T15:23:52.349Z,12.08
2023-01-04T15:26:18.749Z,12.07
2023-01-04T15:28:45.180Z,12.08
2023-01-04T15:31:13.519Z,12.07
2023-01-04T15:33:40.233Z,12.04
2023-01-04T15:36:23.757Z,12.04
2023-01-04T15:38:54.094Z,12.04
2023-01-04T15:41:39.069Z,12.05
2023-01-04T15:44:05.638Z,12.03
2023-01-04T15:46:32.228Z,12.04
2023-01-04T15:48:58.753Z,11.99
2023-01-04T15:51:25.151Z,12.02
2023-01-04T15:53:52.864Z,12.01
2023-01-04T15:56:20.602Z,11.99
2023-01-04T15:58:47.868Z,11.97
2023-01-04T16:01:15.923Z,11.94
2023-01-04T16:03:42.574Z,11.94
2023-01-04T16:06:11.898Z,11.93
2023-01-04T16:08:38.790Z,11.90
2023-01-04T16:11:12.817Z,11.86
2023-01-04T16:13:39.599Z,11.86
2023-01-04T16:16:06.779Z,11.85
2023-01-04T16:18:33.670Z,11.85
2023-01-04T16:21:00.104Z,11.83
2023-01-04T16:23:27.685Z,11.83
2023-01-04T16:26:23.618Z,11.86
2023-01-04T16:28:51.762Z,11.83
2023-01-04T16:31:18.279Z,11.83
2023-01-04T16:33:47.501Z,11.85
2023-01-04T16:36:15.064Z,11.90
2023-01-04T16:38:43.984Z,11.90
2023-01-04T16:41:12.568Z,11.93
2023-01-04T16:43:50.469Z,11.96
2023-01-04T16:46:27.370Z,11.98
2023-01-04T16:48:56.548Z,11.96
2023-01-04T16:51:24.263Z,12.01
2023-01-04T16:53:51.190Z,12.02
2023-01-04T16:56:20.226Z,12.04
2023-01-04T16:58:48.275Z,12.04
2023-01-04T17:01:18.907Z,12.04
2023-01-04T17:03:47.355Z,12.05
2023-01-04T17:06:16.494Z,12.03
2023-01-04T17:08:43.474Z,12.02
2023-01-04T17:12:11.425Z,12.00
2023-01-04T17:13:59.321Z,12.00
2023-01-04T17:16:29.628Z,12.02
2023-01-04T17:19:00.795Z,12.00
2023-01-04T17:21:34.283Z,12.00
2023-01-04T17:24:02.629Z,12.01
2023-01-04T17:26:31.764Z,12.02
2023-01-04T17:28:59.691Z,12.04
2023-01-04T17:31:39.619Z,12.07
2023-01-04T17:34:07.751Z,12.03
2023-01-04T17:36:34.347Z,12.02
2023-01-04T17:39:01.378Z,11.98
2023-01-04T17:41:29.280Z,12.01
2023-01-04T17:43:59.947Z,12.02
2023-01-04T17:46:27.644Z,12.00
2023-01-04T17:49:21.271Z,12.00
2023-01-04T17:51:40.571Z,12.01
2023-01-04T17:54:08.334Z,11.99
2023-01-04T17:56:36.798Z,12.01
2023-01-04T17:59:06.587Z,12.01
2023-01-04T18:01:33.532Z,12.03
2023-01-04T18:04:00.742Z,12.05
2023-01-04T18:06:30.651Z,12.06
2023-01-04T18:08:57.851Z,12.09
2023-01-04T18:11:24.914Z,12.09
2023-01-04T18:13:53.060Z,12.10
2023-01-04T18:16:27.470Z,12.10
2023-01-04T18:18:55.322Z,12.12
2023-01-04T18:21:29.208Z,12.12
2023-01-04T18:24:34.698Z,12.12
2023-01-04T18:27:19.966Z,12.14
2023-01-04T18:29:34.213Z,12.15
2023-01-04T18:32:00.725Z,12.17
2023-01-04T18:34:27.361Z,12.18
2023-01-04T18:36:54.001Z,12.19
2023-01-04T18:39:20.560Z,12.21
2023-01-04T18:41:47.139Z,12.19
2023-01-04T18:47:01.631Z,12.23
2023-01-04T18:49:28.114Z,12.20
2023-01-04T18:51:54.564Z,12.18
2023-01-04T18:54:21.559Z,12.21
2023-01-04T18:56:48.295Z,12.21
2023-01-04T18:59:17.201Z,12.21
2023-01-04T19:01:44.930Z,12.21
2023-01-04T19:04:12.479Z,12.22
2023-01-04T19:06:40.028Z,12.24
2023-01-04T19:09:07.209Z,12.28
2023-01-04T19:11:34.273Z,12.29
2023-01-04T19:14:00.837Z,12.30
2023-01-04T19:16:30.857Z,12.31
2023-01-04T19:18:58.927Z,12.31
2023-01-04T19:21:25.750Z,12.35
2023-01-04T19:23:52.669Z,12.31
2023-01-04T19:26:19.389Z,12.35
2023-01-04T19:28:45.823Z,12.37
2023-01-04T19:31:12.620Z,12.35
2023-01-04T19:33:39.135Z,12.33
2023-01-04T19:36:10.274Z,12.33
2023-01-04T19:38:37.206Z,12.31
2023-01-04T19:41:04.804Z,12.28
2023-01-04T19:43:31.348Z,12.25
2023-01-04T19:45:59.086Z,12.22
2023-01-04T19:48:25.722Z,12.20
2023-01-04T19:51:09.903Z,12.21
2023-01-04T19:53:36.824Z,12.19
2023-01-04T19:56:03.342Z,12.18
2023-01-04T19:58:29.816Z,12.18
2023-01-04T20:00:56.281Z,12.14
2023-01-04T20:03:23.654Z,12.13
2023-01-04T20:05:51.565Z,12.17
2023-01-04T20:08:18.283Z,12.14
2023-01-04T20:10:45.749Z,12.15
2023-01-04T20:13:12.143Z,12.16
2023-01-04T20:15:39.482Z,12.17
2023-01-04T20:18:11.914Z,12.18
2023-01-04T20:20:43.923Z,12.17
2023-01-04T20:23:10.383Z,12.18
2023-01-04T20:25:41.011Z,12.22
2023-01-04T20:28:07.634Z,12.24
2023-01-04T20:30:34.207Z,12.24
2023-01-04T20:33:00.681Z,12.25
2023-01-04T20:35:27.118Z,12.27
2023-01-04T20:37:59.408Z,12.30
2023-01-04T20:40:26.858Z,12.27
2023-01-04T20:43:11.961Z,12.28
2023-01-04T20:45:42.796Z,12.28
2023-01-04T20:48:09.452Z,12.28
2023-01-04T20:50:35.893Z,12.26
2023-01-04T20:53:02.573Z,12.28
2023-01-04T20:55:29.085Z,12.27
2023-01-04T20:57:55.500Z,12.25
2023-01-04T21:00:21.980Z,12.27
2023-01-04T21:02:48.958Z,12.29
2023-01-04T21:05:16.161Z,12.27
2023-01-04T21:07:42.577Z,12.27
2023-01-04T21:10:09.611Z,12.26
2023-01-04T21:12:37.592Z,12.28
2023-01-04T21:15:04.200Z,12.25
2023-01-04T21:17:30.646Z,12.24
2023-01-04T21:19:57.132Z,12.24
2023-01-04T21:22:23.904Z,12.21
2023-01-04T21:24:50.335Z,12.22
2023-01-04T21:27:16.748Z,12.21
2023-01-04T21:29:43.196Z,12.19
2023-01-04T21:32:09.619Z,12.19
2023-01-04T21:34:36.028Z,12.20
2023-01-04T21:37:02.436Z,12.24
2023-01-04T21:39:29.256Z,12.22
2023-01-04T21:41:55.704Z,12.22
2023-01-04T21:44:22.141Z,12.24
2023-01-04T21:46:48.581Z,12.21
2023-01-04T21:49:15.122Z,12.25
2023-01-04T21:51:41.535Z,12.30
2023-01-04T21:54:08.351Z,12.27
2023-01-04T21:56:34.772Z,12.28
2023-01-04T21:59:02.223Z,12.30
2023-01-04T22:01:34.569Z,12.32
2023-01-04T22:04:01.795Z,12.28
2023-01-04T22:06:29.227Z,12.32
2023-01-04T22:08:55.670Z,12.34
2023-01-04T22:11:22.077Z,12.30
2023-01-04T22:13:50.196Z,12.31
2023-01-04T22:16:17.004Z,12.30
2023-01-04T22:18:50.212Z,12.32
2023-01-04T22:21:19.015Z,12.32
2023-01-04T22:23:45.441Z,12.32
2023-01-04T22:26:12.256Z,12.35
2023-01-04T22:28:40.030Z,12.37
2023-01-04T22:31:08.484Z,12.35
2023-01-04T22:33:36.035Z,12.35
2023-01-04T22:36:07.390Z,12.33
2023-01-04T22:38:35.501Z,12.38
2023-01-04T22:41:09.376Z,12.41
2023-01-04T22:43:36.444Z,12.46
2023-01-04T22:46:04.648Z,12.48
2023-01-04T22:48:31.124Z,12.47
2023-01-04T22:50:57.666Z,12.46
2023-01-04T22:53:24.092Z,12.50
2023-01-04T22:58:37.437Z,12.35
2023-01-04T23:01:04.889Z,12.36
2023-01-04T23:03:35.553Z,12.27
2023-01-04T23:06:09.796Z,12.15
2023-01-04T23:08:36.983Z,12.09
2023-01-04T23:11:12.619Z,12.00
2023-01-04T23:13:39.141Z,11.88
2023-01-04T23:16:06.597Z,11.84
2023-01-04T23:18:33.871Z,11.77
2023-01-04T23:21:00.393Z,11.72
2023-01-04T23:23:27.110Z,11.74
2023-01-04T23:25:54.051Z,11.75
2023-01-04T23:28:20.843Z,11.72
2023-01-04T23:30:48.240Z,11.71
2023-01-04T23:33:14.847Z,11.72
2023-01-04T23:35:41.470Z,11.73
2023-01-04T23:38:08.004Z,11.75
2023-01-04T23:40:34.569Z,11.75
2023-01-04T23:43:02.226Z,11.77
2023-01-04T23:45:28.949Z,11.77
2023-01-04T23:47:55.763Z,11.79
2023-01-04T23:50:22.563Z,11.78
2023-01-04T23:52:49.121Z,11.80
2023-01-04T23:55:15.657Z,11.85
2023-01-04T23:57:42.233Z,11.85
